Melbourne, Victoria

4:41 PM AEDT on October 23, 2014 (GMT +1100)
AO-SC3 | Change Station
CLOSE
Current Station
Personal Weather Station
Location: Melbourne, VICTORIA
Elevation: 23 ft
Nearby Weather Stations

Elev 23 ft 37.82 °S, 144.98 °E | Updated 10 minutes ago

Mostly Cloudy
Mostly Cloudy
64.9 °F
Feels Like 64.9 °F
N
8.0
Wind Variable Wind from East
Gusts 10.0 mph

Today
High -- | Low -- °F
--% Chance of Precip.
Yesterday
High -- | Low -- °F
Precip. -- in
6:24 AM 7:44 PM
Waning Crescent, 0% visible
Pressure 30.01 in
Visibility 6.2 miles
Clouds Mostly Cloudy 2000 ft
Dew Point 58 °F
Humidity 78%
Rainfall 0.00 in
Snow Depth Not available.
UV 4 out of 12
Pollen Not available.
Air Quality Not available.
Flu Activity Not available.
METAR YMML 230500Z 20007KT 9999 BKN020 19/13 Q1016 RMK HAZE FM0530 18012KT 9999 SCT020

More Conditions Fewer Conditions

Pressure 30.01 in
Visibility 6.2 miles
Clouds Mostly Cloudy 2000 ft
Dew Point 58 °F
Humidity 78%
Rainfall 0.00 in
Snow Depth Not available.
UV 4 out of 12
Pollen Not available.
Air Quality Not available.
Flu Activity Not available.
METAR YMML 230500Z 20007KT 9999 BKN020 19/13 Q1016 RMK HAZE FM0530 18012KT 9999 SCT020

More Conditions Fewer Conditions

10-Day Weather Forecast

Almanac

Astronomy

Oct. 23, 2014 Rise Set
Actual Time 6:24 AM AEDT 7:44 PM AEDT
Civil Twilight 5:57 AM AEDT 8:12 PM AEDT
Nautical Twilight 5:24 AM AEDT 8:45 PM AEDT
Astronomical Twilight 4:50 AM AEDT 9:19 PM AEDT
Moon 5:55 AM AEDT 7:06 PM AEDT
Length of Visible Light 14h 14m
Length of Day
13h 20m
Tomorrow will be 2m 19s longer.
Waning Crescent, 0% of the Moon is Illuminated
Today
Waning Crescent
Oct 23
New
Oct 30
First Quarter
Nov 6
Full
Nov 14
Last Quarter

Yesterday's Extremes

Country Highs Country Lows

Community

WunderPhotos

Upload Photos

1,764,188 photos uploaded!

Nearby

Snow Depth

Not available.

Earthquake Activity

City Distance Mag. Time & Date
No recent earthquake activity has been reported nearby.
Minimum magnitude displayed is 2.5.

Coastal Water Temperatures

Place Temperature
No Stations Reporting

Nearby Weather Stations